Time;durP1;ratioP1;P1;durP2;ratioP2;P2;SDS_P1;SDS_P2;PMS_P1;PMS_P2;Temp;Humidity;BMP_temperature;BMP_pressure;BME280_temperature;BME280_humidity;BME280_pressure;Samples;Min_cycle;Max_cycle;Signal;HPM_P1;HPM_P2
2022/04/07 00:01:18;;;;;;;33.08;7.30;;;11.30;99.90;;;11.52;89.39;98908.72;5074071;28;20119;-67
2022/04/07 00:03:46;;;;;;;23.80;6.53;;;11.30;99.90;;;11.55;89.15;98891.84;5074370;28;20046;-67
2022/04/07 00:06:15;;;;;;;29.58;7.38;;;11.30;99.90;;;11.54;89.18;98898.06;5073728;28;20119;-66
2022/04/07 00:08:44;;;;;;;31.20;7.63;;;11.30;99.90;;;11.58;88.82;98905.84;5073637;28;20097;-66
2022/04/07 00:11:12;;;;;;;34.45;7.03;;;11.40;99.90;;;11.56;88.84;98877.69;5072885;28;20468;-66
2022/04/07 00:13:41;;;;;;;22.88;6.88;;;11.40;99.90;;;11.62;88.53;98896.84;5073577;28;20044;-66
2022/04/07 00:16:10;;;;;;;25.02;6.68;;;11.40;99.90;;;11.67;88.68;98896.69;5073751;28;20051;-66
2022/04/07 00:18:40;;;;;;;31.23;7.38;;;11.40;99.90;;;11.61;89.06;98887.16;5072670;28;20101;-66
2022/04/07 00:21:12;;;;;;;24.60;6.87;;;11.40;99.90;;;11.63;88.97;98873.88;5074103;28;20048;-66
2022/04/07 00:23:41;;;;;;;24.20;7.50;;;11.40;99.90;;;11.64;89.29;98881.75;5073718;28;20373;-66
2022/04/07 00:26:09;;;;;;;31.70;6.90;;;11.40;99.90;;;11.65;89.18;98885.28;5073732;28;20045;-66
2022/04/07 00:28:38;;;;;;;28.38;7.05;;;11.40;99.90;;;11.63;89.08;98871.25;5073296;28;20056;-66
2022/04/07 00:31:06;;;;;;;21.30;6.85;;;11.40;99.90;;;11.63;88.85;98861.47;5071827;28;20037;-67
2022/04/07 00:33:34;;;;;;;35.17;8.23;;;11.40;99.90;;;11.61;88.56;98852.75;5073315;28;20036;-67
2022/04/07 00:36:05;;;;;;;30.83;7.35;;;11.40;99.90;;;11.63;88.83;98852.69;5073209;28;20461;-67
2022/04/07 00:38:34;;;;;;;29.05;7.35;;;11.40;99.90;;;11.65;88.97;98853.50;5073500;28;20106;-66
2022/04/07 00:41:02;;;;;;;31.63;7.80;;;11.40;99.90;;;11.56;88.86;98853.84;5073231;28;20051;-66
2022/04/07 00:43:32;;;;;;;34.58;7.68;;;11.40;99.90;;;11.53;88.79;98838.97;5073167;28;20110;-66
2022/04/07 00:46:03;;;;;;;30.77;7.65;;;11.40;99.90;;;11.58;88.75;98833.47;5073247;28;20044;-66
2022/04/07 00:48:35;;;;;;;;;;;11.40;99.90;;;11.62;88.83;98825.34;5072667;28;20073;-66
2022/04/07 00:51:07;;;;;;;31.52;8.30;;;11.40;99.90;;;11.62;88.97;98817.41;5073186;28;20019;-66
2022/04/07 00:53:36;;;;;;;26.10;7.53;;;11.40;99.90;;;11.54;88.88;98802.75;5072884;28;20056;-66
2022/04/07 00:56:07;;;;;;;28.55;8.00;;;11.40;99.90;;;11.54;89.08;98795.69;5073366;28;20094;-66
2022/04/07 00:58:36;;;;;;;25.90;7.13;;;11.30;99.90;;;11.57;89.50;98802.66;5071799;28;20063;-66
2022/04/07 01:01:04;;;;;;;30.05;7.70;;;11.30;99.90;;;11.53;89.69;98795.75;5072970;28;20120;-66
2022/04/07 01:03:33;;;;;;;22.67;6.80;;;11.30;99.90;;;11.48;90.83;98798.59;5071934;28;20094;-66
2022/04/07 01:06:03;;;;;;;32.97;7.63;;;11.30;99.90;;;11.50;91.25;98796.72;5072937;28;20555;-66
2022/04/07 01:08:33;;;;;;;33.30;7.68;;;11.30;99.90;;;11.52;91.31;98791.38;5072913;28;20390;-66
2022/04/07 01:11:02;;;;;;;32.30;7.73;;;11.30;99.90;;;11.44;91.69;98774.97;5073200;28;20092;-66
2022/04/07 01:13:50;;;;;;;33.22;8.07;;;11.30;99.90;;;11.46;92.15;98765.16;5072858;28;20044;-67
2022/04/07 01:16:19;;;;;;;31.08;7.57;;;11.20;99.90;;;11.47;92.15;98793.34;5073363;28;20543;-66
2022/04/07 01:18:48;;;;;;;29.50;7.53;;;11.30;99.90;;;11.45;92.12;98758.16;5071795;28;20045;-66
2022/04/07 01:21:18;;;;;;;30.38;8.13;;;11.20;99.90;;;11.52;92.37;98757.81;5072800;28;20044;-67
2022/04/07 01:23:56;;;;;;;36.47;8.02;;;11.30;99.90;;;11.44;92.30;98757.28;5073193;28;20482;-66
2022/04/07 01:26:27;;;;;;;36.30;8.57;;;11.20;99.90;;;11.39;92.22;98727.50;5072025;28;20098;-67
2022/04/07 01:28:56;;;;;;;34.63;8.80;;;11.20;99.90;;;11.37;92.39;98717.91;5073077;28;20090;-67
2022/04/07 01:31:24;;;;;;;38.35;9.43;;;11.20;99.90;;;11.44;91.94;98745.84;5072988;28;20054;-66
2022/04/07 01:33:53;;;;;;;44.08;9.82;;;11.20;99.90;;;11.42;90.92;98703.53;5072629;28;20043;-66
2022/04/07 01:36:22;;;;;;;47.40;9.68;;;11.20;99.90;;;11.37;91.49;98704.66;5072825;28;20461;-66
2022/04/07 01:38:50;;;;;;;43.10;8.60;;;11.20;99.90;;;11.41;91.87;98693.03;5072906;28;20041;-66
2022/04/07 01:41:21;;;;;;;48.05;10.55;;;11.20;99.90;;;11.19;92.01;98644.59;5074311;28;20047;-66
2022/04/07 01:43:52;;;;;;;45.92;9.45;;;11.20;99.90;;;11.43;92.00;98693.81;5076818;28;20086;-67
2022/04/07 01:46:22;;;;;;;;;;;11.20;99.90;;;11.40;91.69;98692.16;5076862;28;20044;-66
2022/04/07 01:48:53;;;;;;;47.42;9.82;;;11.20;99.90;;;11.45;91.29;98660.22;5076960;28;19927;-67
2022/04/07 01:51:22;;;;;;;40.05;9.55;;;11.20;99.90;;;11.39;90.81;98693.09;5076404;28;20544;-66
2022/04/07 01:53:51;;;;;;;34.60;9.00;;;11.20;99.90;;;11.45;90.39;98674.31;5076438;28;20106;-65
2022/04/07 01:56:21;;;;;;;48.83;9.63;;;11.20;99.90;;;11.41;89.90;98670.06;5076541;28;20056;-66
2022/04/07 01:58:53;;;;;;;42.92;10.00;;;11.20;99.90;;;11.41;89.62;98672.72;5076268;28;20543;-66
2022/04/07 02:01:21;;;;;;;41.75;9.15;;;11.20;99.90;;;11.49;89.38;98680.34;5076722;28;20123;-66
2022/04/07 02:03:50;;;;;;;53.22;9.82;;;11.30;99.90;;;11.53;89.07;98685.44;5076651;28;20040;-66
2022/04/07 02:06:20;;;;;;;48.17;9.65;;;11.30;99.90;;;11.41;89.02;98654.19;5076310;28;20036;-65
2022/04/07 02:08:48;;;;;;;40.05;9.15;;;11.30;99.90;;;11.46;89.12;98677.78;5076602;28;20098;-65
2022/04/07 02:11:16;;;;;;;48.42;9.23;;;11.30;99.90;;;11.60;88.92;98667.47;5076752;28;20475;-66
2022/04/07 02:13:45;;;;;;;46.22;9.40;;;11.30;99.90;;;11.55;88.61;98670.34;5074858;28;20051;-66
2022/04/07 02:16:14;;;;;;;39.25;9.30;;;11.40;99.90;;;11.51;88.44;98662.59;5076160;28;20210;-66
2022/04/07 02:18:43;;;;;;;44.38;9.82;;;11.30;99.90;;;11.53;88.25;98661.63;5075900;28;20444;-65
2022/04/07 02:21:12;;;;;;;47.40;10.32;;;11.30;99.90;;;11.57;88.42;98636.72;5108633;28;20099;-66
2022/04/07 02:23:42;;;;;;;43.95;9.32;;;11.40;99.90;;;11.50;88.53;98635.25;5076574;28;20072;-66
2022/04/07 02:26:12;;;;;;;;;;;11.30;99.90;;;11.36;88.68;98613.81;5076114;28;20066;-66
2022/04/07 02:28:41;;;;;;;45.80;10.57;;;11.30;99.90;;;11.51;88.74;98647.59;5075712;28;20361;-66
2022/04/07 02:31:10;;;;;;;48.97;9.75;;;11.30;99.90;;;11.28;88.63;98589.50;5075921;28;20094;-66
2022/04/07 02:33:40;;;;;;;45.30;9.70;;;11.30;99.90;;;11.52;88.58;98604.28;5075881;28;20048;-66
2022/04/07 02:36:10;;;;;;;49.55;10.63;;;11.30;99.90;;;11.53;88.55;98642.22;5075527;28;20127;-66
2022/04/07 02:38:38;;;;;;;43.05;9.57;;;11.30;99.90;;;11.47;88.30;98594.84;5091302;28;20048;-66
2022/04/07 02:41:07;;;;;;;47.47;9.82;;;11.30;99.90;;;11.46;88.13;98601.03;5075504;28;20044;-66
2022/04/07 02:43:35;;;;;;;43.38;10.07;;;11.30;99.90;;;11.56;88.23;98599.72;5075703;28;20504;-66
2022/04/07 02:46:04;;;;;;;43.78;10.30;;;11.30;99.90;;;11.53;87.89;98589.28;5075282;28;20051;-60
2022/04/07 02:48:32;;;;;;;47.03;11.00;;;11.30;99.90;;;11.50;87.88;98579.66;5074012;28;20047;-60
2022/04/07 02:51:02;;;;;;;50.97;12.00;;;11.30;99.90;;;11.44;88.18;98593.16;5074397;28;20376;-60
2022/04/07 02:53:31;;;;;;;45.90;9.95;;;11.30;99.90;;;10.99;88.40;98502.63;5072983;28;20335;-60
2022/04/07 02:55:59;;;;;;;43.67;9.43;;;11.30;99.90;;;11.42;88.56;98578.31;5074129;28;20131;-60
2022/04/07 02:58:28;;;;;;;52.03;10.15;;;11.20;99.90;;;11.40;88.51;98561.63;5074260;28;20037;-60
2022/04/07 03:00:56;;;;;;;46.85;10.05;;;11.20;99.90;;;11.47;88.66;98555.13;5073869;28;20060;-60
2022/04/07 03:03:24;;;;;;;37.97;8.82;;;11.20;99.90;;;11.45;88.39;98556.97;5073982;28;20452;-60
2022/04/07 03:05:53;;;;;;;50.58;9.32;;;11.20;99.90;;;11.42;88.67;98567.72;5074272;28;20056;-60
2022/04/07 03:08:23;;;;;;;40.10;8.85;;;11.20;99.90;;;11.34;88.94;98535.44;5072589;28;20048;-60
2022/04/07 03:10:51;;;;;;;39.90;8.77;;;11.20;99.90;;;11.38;89.64;98529.09;5073979;28;20453;-60
2022/04/07 03:13:19;;;;;;;41.13;8.55;;;11.20;99.90;;;11.39;90.15;98529.00;5073711;28;20029;-60
2022/04/07 03:15:48;;;;;;;30.77;7.80;;;11.20;99.90;;;11.29;90.23;98498.59;5073850;28;20044;-60
2022/04/07 03:18:16;;;;;;;37.15;8.25;;;11.10;99.90;;;10.92;91.05;98444.78;5073907;28;20048;-60
2022/04/07 03:20:45;;;;;;;35.22;8.93;;;11.10;99.90;;;11.27;91.32;98513.69;5073775;28;20094;-60
2022/04/07 03:23:13;;;;;;;33.33;7.90;;;11.10;99.90;;;11.27;91.99;98503.09;5072687;28;20147;-60
2022/04/07 03:25:43;;;;;;;36.30;8.70;;;11.10;99.90;;;11.23;93.04;98482.13;5072271;28;20052;-60
2022/04/07 03:28:11;;;;;;;46.60;9.70;;;11.00;99.90;;;11.22;93.08;98489.22;5073459;28;20410;-60
2022/04/07 03:30:40;;;;;;;46.90;9.05;;;11.00;99.90;;;11.19;93.40;98483.22;5073509;28;20048;-60
2022/04/07 03:33:08;;;;;;;44.22;8.88;;;11.00;99.90;;;11.18;93.44;98470.91;5072359;28;20098;-59
2022/04/07 03:35:37;;;;;;;37.83;8.85;;;11.00;99.90;;;11.17;93.59;98472.69;5073135;28;20040;-59
2022/04/07 03:38:06;;;;;;;40.97;8.15;;;11.00;99.90;;;11.17;94.18;98520.31;5073019;28;20040;-60
2022/04/07 03:40:35;;;;;;;31.35;7.65;;;11.00;99.90;;;11.13;93.88;98454.41;5072953;28;20112;-59
2022/04/07 03:43:05;;;;;;;37.22;8.80;;;10.90;99.90;;;11.14;94.18;98430.50;5072903;28;20092;-60
2022/04/07 03:45:33;;;;;;;41.65;8.25;;;10.90;99.90;;;11.18;93.97;98421.50;5073228;28;20051;-60
2022/04/07 03:48:02;;;;;;;32.13;8.10;;;11.00;99.90;;;10.91;93.49;98478.31;5072838;28;20044;-60
2022/04/07 03:50:30;;;;;;;31.20;8.35;;;10.90;99.90;;;11.17;93.34;98422.41;5072813;28;20075;-59
2022/04/07 03:52:59;;;;;;;34.38;7.93;;;10.90;99.90;;;11.16;92.06;98391.63;5072720;28;20513;-60
2022/04/07 03:55:27;;;;;;;30.73;8.20;;;11.00;99.90;;;11.16;92.17;98396.03;5072577;28;20075;-60
2022/04/07 03:57:55;;;;;;;30.50;7.20;;;11.00;99.90;;;11.26;91.50;98416.72;5072575;28;20437;-59
2022/04/07 04:00:27;;;;;;;30.52;8.13;;;11.00;99.90;;;11.22;91.18;98356.06;5072444;28;20486;-60
2022/04/07 04:02:55;;;;;;;26.23;7.40;;;11.00;99.90;;;11.21;91.10;98405.47;5072791;28;20123;-60
2022/04/07 04:05:24;;;;;;;29.75;8.48;;;11.00;99.90;;;11.17;91.74;98344.88;5072503;28;20071;-59
2022/04/07 04:07:52;;;;;;;31.90;7.68;;;11.00;99.90;;;10.55;92.19;98202.41;5072999;28;20185;-60
2022/04/07 04:10:20;;;;;;;26.42;7.70;;;11.00;99.90;;;11.11;92.23;98316.06;5072383;28;20119;-58
2022/04/07 04:12:49;;;;;;;27.33;7.65;;;10.90;99.90;;;11.03;91.53;98311.13;5072319;28;20041;-59
2022/04/07 04:15:18;;;;;;;25.33;7.15;;;10.80;99.90;;;10.74;91.95;98249.03;5072526;28;20044;-60
2022/04/07 04:17:47;;;;;;;27.30;7.20;;;10.90;99.90;;;11.13;91.95;98315.03;5072153;28;20087;-59
2022/04/07 04:20:16;;;;;;;25.67;7.63;;;10.90;99.90;;;11.13;92.13;98320.31;5072252;28;20128;-59
2022/04/07 04:22:44;;;;;;;22.70;6.30;;;10.90;99.90;;;11.11;92.31;98273.75;5072462;28;20155;-60
2022/04/07 04:25:12;;;;;;;23.92;6.45;;;10.90;99.90;;;11.04;92.53;98296.09;5072451;28;20044;-59
2022/04/07 04:27:41;;;;;;;25.92;6.88;;;10.80;99.90;;;11.05;92.63;98311.91;5072136;28;20048;-59
2022/04/07 04:30:15;;;;;;;23.35;6.15;;;10.80;99.90;;;11.05;93.01;98335.72;5072133;28;20098;-59
2022/04/07 04:32:43;;;;;;;18.45;6.38;;;10.80;99.90;;;10.99;92.90;98287.53;5072556;28;20048;-59
2022/04/07 04:35:13;;;;;;;23.25;7.25;;;10.80;99.90;;;10.90;93.61;98235.94;5071112;28;20493;-59
2022/04/07 04:37:42;;;;;;;22.90;6.60;;;10.70;99.90;;;10.79;93.96;98214.44;5072188;28;20052;-59
2022/04/07 04:40:11;;;;;;;26.08;7.03;;;10.70;99.90;;;10.88;94.59;98274.81;5071960;28;20079;-60
2022/04/07 04:42:40;;;;;;;20.83;5.82;;;10.70;99.90;;;10.86;95.30;98234.38;5072360;28;20048;-60
2022/04/07 04:45:09;;;;;;;17.83;5.95;;;10.70;99.90;;;10.78;95.85;98247.13;5072379;28;20067;-59
2022/04/07 04:47:37;;;;;;;20.75;6.30;;;10.60;99.90;;;10.75;96.10;98241.97;5072087;28;20102;-59
2022/04/07 04:50:07;;;;;;;20.65;5.55;;;10.60;99.90;;;10.76;96.05;98236.59;5072106;28;20109;-59
2022/04/07 04:52:36;;;;;;;21.75;7.05;;;10.50;99.90;;;10.80;96.48;98202.97;5072383;28;20056;-59
2022/04/07 04:55:07;;;;;;;26.33;6.22;;;10.60;99.90;;;10.78;96.70;98221.50;5072017;28;20061;-59
2022/04/07 04:57:35;;;;;;;21.05;6.47;;;10.60;99.90;;;10.81;96.85;98189.66;5072320;28;20053;-60
2022/04/07 05:00:05;;;;;;;19.50;6.30;;;10.60;99.90;;;10.79;97.24;98198.59;5072285;28;20051;-59
2022/04/07 05:02:34;;;;;;;20.75;5.78;;;10.60;99.90;;;10.74;97.95;98193.50;5072506;28;20048;-59
2022/04/07 05:05:02;;;;;;;20.33;6.10;;;10.50;99.90;;;10.70;98.29;98177.91;5072885;28;20044;-60
2022/04/07 05:07:31;;;;;;;19.85;6.47;;;10.50;99.90;;;10.68;98.58;98193.81;5072351;28;20520;-59
2022/04/07 05:10:01;;;;;;;17.95;5.93;;;10.50;99.90;;;10.68;98.63;98177.94;5070972;28;20490;-59
2022/04/07 05:12:29;;;;;;;23.40;5.97;;;10.50;99.90;;;10.76;98.55;98170.50;5072314;28;20409;-60
2022/04/07 05:14:58;;;;;;;14.80;5.22;;;10.50;99.90;;;10.74;98.84;98174.19;5072273;28;20041;-61
2022/04/07 05:17:26;;;;;;;16.23;5.53;;;10.50;99.90;;;10.69;99.01;98195.53;5076539;28;20040;-59
2022/04/07 05:19:55;;;;;;;16.00;5.45;;;10.50;99.90;;;10.73;99.28;98227.97;5076754;28;20067;-59
2022/04/07 05:22:23;;;;;;;18.85;5.78;;;10.50;99.90;;;10.72;99.18;98271.19;5076518;28;20136;-59
2022/04/07 05:24:52;;;;;;;18.80;5.18;;;10.50;99.90;;;10.72;99.16;98311.69;5075934;28;20075;-59
2022/04/07 05:27:21;;;;;;;18.92;6.03;;;10.50;99.90;;;9.31;91.94;98302.06;5076138;28;20090;-60
2022/04/07 05:29:50;;;;;;;10.70;4.38;;;9.60;99.90;;;8.64;89.83;98299.44;5075742;28;20409;-61
2022/04/07 05:32:18;;;;;;;9.32;4.57;;;8.80;99.90;;;8.74;90.64;98308.72;5108806;28;20086;-60
2022/04/07 05:34:46;;;;;;;12.10;4.63;;;8.60;99.90;;;8.52;91.23;98293.75;5075659;28;20131;-63
2022/04/07 05:37:15;;;;;;;16.65;5.43;;;8.50;99.90;;;8.50;91.65;98293.81;5075631;28;20463;-65
2022/04/07 05:39:43;;;;;;;18.55;5.40;;;8.40;99.90;;;8.28;92.65;98303.44;5075791;28;20132;-66
2022/04/07 05:42:12;;;;;;;15.27;6.35;;;8.30;99.90;;;8.29;94.31;98301.66;5074423;28;20409;-65
2022/04/07 05:44:41;;;;;;;17.70;5.65;;;8.20;99.90;;;8.27;95.06;98295.56;5075706;28;20123;-65
2022/04/07 05:47:10;;;;;;;18.40;5.70;;;8.20;99.90;;;8.34;95.50;98339.22;5074503;28;20543;-62
2022/04/07 05:49:38;;;;;;;16.83;5.95;;;8.20;99.90;;;8.04;95.81;98212.16;5075299;28;20448;-63
2022/04/07 05:52:07;;;;;;;21.02;6.40;;;8.30;99.90;;;8.40;95.91;98302.97;5075237;28;20055;-65
2022/04/07 05:54:38;;;;;;;20.33;5.88;;;8.30;99.90;;;8.45;96.99;98293.16;5075060;28;20091;-65
2022/04/07 05:57:07;;;;;;;22.17;6.25;;;8.30;99.90;;;8.52;96.77;98299.03;5075432;28;20040;-65
2022/04/07 05:59:35;;;;;;;20.42;5.45;;;8.40;99.90;;;8.47;96.71;98296.56;5074955;28;20053;-63
2022/04/07 06:02:06;;;;;;;24.02;6.10;;;8.40;99.90;;;8.46;96.78;98305.38;5074907;28;20037;-63
2022/04/07 06:04:38;;;;;;;28.20;7.00;;;8.40;99.90;;;8.56;96.72;98290.94;5075030;28;20435;-62
2022/04/07 06:07:07;;;;;;;20.80;6.15;;;8.50;99.90;;;8.71;96.43;98276.34;5075022;28;20037;-66
2022/04/07 06:09:35;;;;;;;22.33;6.68;;;8.60;99.90;;;8.74;96.00;98274.47;5075049;28;20076;-64
2022/04/07 06:12:05;;;;;;;29.40;6.63;;;8.60;99.90;;;8.86;96.15;98255.53;5074989;28;20064;-63
2022/04/07 06:14:33;;;;;;;17.88;5.35;;;8.70;99.90;;;8.82;94.59;98245.16;5074827;28;20131;-70
2022/04/07 06:17:02;;;;;;;15.43;5.05;;;8.70;99.90;;;8.95;93.86;98235.84;5075273;28;20060;-63
2022/04/07 06:19:31;;;;;;;14.38;5.28;;;8.80;99.90;;;9.08;94.06;98226.50;5074509;28;20098;-63
2022/04/07 06:22:00;;;;;;;19.13;4.80;;;8.90;99.90;;;8.93;93.23;98219.22;5074780;28;20102;-63
2022/04/07 06:24:29;;;;;;;16.92;4.72;;;8.80;99.90;;;8.94;91.80;98218.34;5074573;28;20037;-63
2022/04/07 06:26:58;;;;;;;17.13;5.18;;;8.80;99.90;;;8.99;91.29;98221.63;5074417;28;20493;-63
2022/04/07 06:29:26;;;;;;;11.25;4.63;;;8.80;99.90;;;8.53;90.74;98153.25;5073325;28;20503;-63
2022/04/07 06:31:55;;;;;;;11.23;4.30;;;8.80;99.90;;;9.03;90.18;98223.22;5074681;28;20040;-63
2022/04/07 06:34:24;;;;;;;12.80;4.20;;;8.90;99.90;;;9.10;89.95;98224.66;5074366;28;20059;-64
2022/04/07 06:36:53;;;;;;;13.18;4.53;;;9.00;99.90;;;9.05;89.72;98206.44;5074612;28;20076;-63
2022/04/07 06:39:22;;;;;;;14.07;5.20;;;8.90;99.90;;;9.00;90.32;98207.53;5074531;28;20112;-63
2022/04/07 06:41:50;;;;;;;10.80;4.70;;;8.90;99.90;;;9.02;90.37;98206.53;5074395;28;20040;-64
2022/04/07 06:44:19;;;;;;;14.40;4.50;;;8.80;99.90;;;9.15;90.34;98196.34;5074219;28;20046;-63
2022/04/07 06:46:47;;;;;;;21.02;4.38;;;9.00;99.90;;;9.12;90.02;98183.28;5074123;28;20086;-64
2022/04/07 06:49:16;;;;;;;8.82;4.28;;;8.90;99.90;;;9.06;89.95;98167.72;5073965;28;20045;-64
2022/04/07 06:51:44;;;;;;;9.02;3.80;;;8.90;99.90;;;9.03;90.41;98159.94;5073848;28;20128;-62
2022/04/07 06:54:14;;;;;;;22.27;5.57;;;8.90;99.90;;;9.10;89.96;98169.31;5073858;28;20068;-62
2022/04/07 06:56:57;;;;;;;19.05;5.80;;;8.90;99.90;;;9.15;90.29;98158.56;5110887;27;1269985;-64
2022/04/07 06:59:26;;;;;;;15.10;4.80;;;9.00;99.90;;;9.18;90.68;98151.38;5129737;28;20562;-64
2022/04/07 07:01:54;;;;;;;14.20;4.95;;;9.00;99.90;;;9.28;90.25;98146.56;5129645;28;20465;-64
2022/04/07 07:04:24;;;;;;;12.63;4.60;;;9.00;99.90;;;9.31;90.50;98165.75;5129593;28;20035;-64
2022/04/07 07:06:52;;;;;;;15.05;5.15;;;9.10;99.90;;;9.40;90.39;98153.97;5129586;28;20100;-64
2022/04/07 07:09:21;;;;;;;22.65;5.22;;;9.20;99.90;;;9.36;90.30;98142.69;5129427;28;20666;-64
2022/04/07 07:11:49;;;;;;;17.40;4.90;;;9.20;99.90;;;9.42;90.64;98129.25;5129413;28;20066;-64
2022/04/07 07:14:19;;;;;;;18.45;5.07;;;9.20;99.90;;;9.47;91.08;98121.13;5129624;28;20051;-64
2022/04/07 07:16:48;;;;;;;18.85;4.75;;;9.20;99.90;;;9.46;91.05;98093.03;5129280;28;20051;-64
2022/04/07 07:19:18;;;;;;;17.48;5.10;;;9.20;99.90;;;9.41;90.20;98093.22;5129341;28;20039;-64
2022/04/07 07:21:46;;;;;;;16.07;5.10;;;9.20;99.90;;;9.45;90.52;98100.09;5129286;28;20100;-64
2022/04/07 07:24:15;;;;;;;13.10;4.35;;;9.20;99.90;;;9.50;90.12;98110.44;5129233;28;20376;-64
2022/04/07 07:26:43;;;;;;;15.77;4.78;;;9.30;99.90;;;9.50;90.32;98092.84;5129178;28;20051;-64
2022/04/07 07:29:12;;;;;;;12.65;4.90;;;9.30;99.90;;;9.58;90.26;98082.78;5129189;28;20470;-64
2022/04/07 07:31:41;;;;;;;7.28;4.20;;;9.30;99.90;;;9.57;89.66;98081.06;5129339;28;20400;-64
2022/04/07 07:34:10;;;;;;;12.40;4.45;;;9.40;99.90;;;9.60;90.01;98080.94;5110856;28;20074;-64
2022/04/07 07:36:38;;;;;;;12.02;4.82;;;9.40;99.90;;;9.62;89.66;98067.69;5128829;28;20039;-63
2022/04/07 07:39:07;;;;;;;12.77;4.70;;;9.40;99.90;;;9.62;89.59;98075.59;5128977;28;20077;-64
2022/04/07 07:41:38;;;;;;;11.30;5.05;;;9.50;99.90;;;9.72;89.61;98076.88;5129207;28;20461;-63
2022/04/07 07:44:06;;;;;;;12.88;5.13;;;9.50;99.90;;;9.83;89.67;98090.47;5129576;28;20047;-64
2022/04/07 07:46:34;;;;;;;12.18;4.47;;;9.60;99.90;;;9.87;89.17;98087.59;5128875;28;20047;-63
2022/04/07 07:49:06;;;;;;;8.88;4.38;;;9.60;99.90;;;9.95;89.04;98080.16;5128893;28;20430;-63
2022/04/07 07:51:36;;;;;;;11.32;4.78;;;9.70;99.90;;;10.11;88.74;98080.34;5129047;28;20070;-63
2022/04/07 07:54:04;;;;;;;16.53;4.77;;;9.90;99.90;;;10.26;88.17;98078.78;5128895;28;20047;-63
2022/04/07 07:56:32;;;;;;;11.95;4.78;;;10.00;99.90;;;10.39;88.01;98085.16;5128847;28;20142;-61
2022/04/07 07:59:08;;;;;;;10.93;4.28;;;10.10;99.90;;;10.84;88.81;98085.53;5128929;28;20512;-61
2022/04/07 08:01:36;;;;;;;15.80;4.60;;;10.50;99.90;;;11.09;86.61;98086.00;5129340;28;20031;-61
2022/04/07 08:04:06;;;;;;;10.75;4.90;;;10.80;99.90;;;11.10;84.55;98079.78;5128732;28;20126;-61
2022/04/07 08:06:34;;;;;;;16.63;4.68;;;10.90;99.90;;;11.26;84.26;98086.00;5124776;28;20472;-61
2022/04/07 08:09:03;;;;;;;12.18;4.22;;;11.00;99.90;;;11.58;84.10;98077.22;5115497;28;20032;-61
2022/04/07 08:11:31;;;;;;;12.57;4.57;;;11.30;99.90;;;11.72;82.64;98080.03;5115294;28;20050;-61
2022/04/07 08:14:00;;;;;;;12.40;4.50;;;11.50;99.90;;;11.71;81.94;98083.59;5115354;28;20469;-61
2022/04/07 08:16:30;;;;;;;14.43;4.38;;;11.50;99.90;;;11.91;82.17;98089.63;5115139;28;20130;-61
2022/04/07 08:18:59;;;;;;;15.50;4.60;;;11.70;99.90;;;11.94;81.32;98089.47;5115126;28;20047;-61
2022/04/07 08:21:28;;;;;;;14.23;5.03;;;11.70;99.90;;;12.08;81.51;98081.63;5114660;28;20126;-61
2022/04/07 08:23:57;;;;;;;12.93;4.53;;;11.80;99.90;;;12.12;79.85;98099.91;5115046;28;20071;-61
2022/04/07 08:26:25;;;;;;;16.02;4.90;;;11.90;99.90;;;12.08;80.39;98068.38;5114979;28;20485;-61
2022/04/07 08:28:54;;;;;;;14.60;4.82;;;12.00;99.90;;;11.98;79.70;98080.41;5115118;28;20488;-61
2022/04/07 08:31:23;;;;;;;15.20;4.82;;;11.90;99.90;;;12.04;80.82;98101.28;5114881;28;20074;-60
2022/04/07 08:33:51;;;;;;;15.90;4.72;;;11.80;99.90;;;12.06;80.20;98089.63;5114476;28;20067;-60
2022/04/07 08:36:20;;;;;;;20.98;5.43;;;11.80;99.90;;;12.07;79.90;98106.38;5114841;28;20120;-61
2022/04/07 08:38:50;;;;;;;18.38;5.53;;;11.80;99.90;;;12.03;79.16;98083.66;5114652;28;20067;-61
2022/04/07 08:41:19;;;;;;;17.50;5.13;;;11.90;99.90;;;12.26;78.07;98091.19;5114688;28;20043;-61
2022/04/07 08:43:48;;;;;;;18.02;5.13;;;12.00;99.90;;;12.29;75.84;98097.16;5114300;28;20078;-61
2022/04/07 08:46:16;;;;;;;21.00;5.40;;;12.10;99.90;;;12.49;73.86;98098.69;5114087;28;20047;-61
2022/04/07 08:48:45;;;;;;;15.63;5.43;;;12.20;99.90;;;12.74;72.82;98096.34;5114231;28;20060;-61
2022/04/07 08:51:13;;;;;;;20.40;5.40;;;12.50;99.90;;;12.89;72.09;98108.72;5095850;28;20078;-60
2022/04/07 08:53:43;;;;;;;17.70;5.30;;;12.70;99.90;;;12.80;71.35;98097.78;5114246;28;20051;-61
2022/04/07 08:56:13;;;;;;;16.08;5.57;;;12.70;99.90;;;12.67;69.71;98087.91;5113797;28;20055;-61
2022/04/07 08:58:41;;;;;;;21.45;5.72;;;12.50;99.90;;;12.61;70.47;98108.63;5114121;28;20040;-61
2022/04/07 09:01:10;;;;;;;16.10;5.10;;;12.40;99.90;;;12.72;69.81;98103.53;5114401;28;20051;-61
2022/04/07 09:03:38;;;;;;;16.50;5.50;;;12.50;99.90;;;12.90;70.00;98049.44;5113673;28;20123;-61
2022/04/07 09:06:07;;;;;;;14.50;5.63;;;12.60;99.90;;;12.73;68.89;98076.09;5113986;28;20043;-60
2022/04/07 09:08:37;;;;;;;18.33;5.22;;;12.60;99.90;;;12.79;69.46;98081.06;5113558;28;20040;-61
2022/04/07 09:11:08;;;;;;;17.73;5.45;;;12.60;99.90;;;12.83;68.60;98118.84;5113675;28;20100;-62
2022/04/07 09:13:41;;;;;;;16.40;5.18;;;12.70;99.90;;;12.82;68.92;98128.59;5113521;28;20096;-62
2022/04/07 09:16:12;;;;;;;15.73;5.07;;;12.60;99.90;;;12.77;67.67;98122.72;5113402;28;20043;-61
2022/04/07 09:18:43;;;;;;;16.13;5.50;;;12.60;99.90;;;12.85;68.07;98120.50;5112489;28;20044;-62
2022/04/07 09:21:20;;;;;;;15.25;5.32;;;12.70;99.90;;;13.00;68.41;98146.13;5113657;28;20401;-62
2022/04/07 09:23:48;;;;;;;17.90;5.53;;;12.80;99.90;;;13.07;68.02;98134.22;5095307;28;20373;-62
2022/04/07 09:26:17;;;;;;;18.23;6.47;;;12.80;99.90;;;12.93;67.68;98139.44;5113210;28;20485;-60
2022/04/07 09:28:47;;;;;;;18.27;5.68;;;12.70;99.90;;;12.82;67.22;98151.59;5113118;28;20043;-61
2022/04/07 09:31:18;;;;;;;23.93;5.73;;;12.60;99.90;;;12.55;67.71;98146.06;5113595;28;20103;-62
2022/04/07 09:33:55;;;;;;;23.00;6.07;;;12.50;99.90;;;12.45;68.99;98136.91;5113216;28;20043;-61
2022/04/07 09:36:24;;;;;;;21.30;5.78;;;12.30;99.90;;;12.20;68.71;98134.78;5113262;28;20534;-64
2022/04/07 09:38:54;;;;;;;27.70;6.57;;;12.10;99.90;;;11.45;69.23;98048.84;5112996;28;20048;-61
2022/04/07 09:41:24;;;;;;;24.45;6.82;;;11.80;99.90;;;12.06;69.54;98155.03;5113520;28;20096;-61
2022/04/07 09:43:58;;;;;;;30.02;7.28;;;11.90;99.90;;;12.06;69.79;98162.97;5112787;28;20096;-59
2022/04/07 09:46:33;;;;;;;23.13;6.38;;;11.90;99.90;;;11.97;70.10;98163.44;5113174;28;20043;-61
2022/04/07 09:49:05;;;;;;;24.58;7.47;;;11.80;99.90;;;11.49;69.83;98117.44;5113140;28;20050;-63
2022/04/07 09:51:45;;;;;;;23.15;6.97;;;11.60;99.90;;;11.69;69.83;98149.00;5112882;28;20397;-65
2022/04/07 09:54:16;;;;;;;28.50;7.63;;;11.50;99.90;;;11.70;70.62;98140.16;5113000;28;20075;-62
2022/04/07 09:56:47;;;;;;;30.88;7.30;;;11.50;99.90;;;11.75;71.07;98193.72;5112770;28;20063;-61
2022/04/07 09:59:19;;;;;;;23.75;7.28;;;11.60;99.90;;;11.73;70.69;98192.94;5113002;28;20043;-62
2022/04/07 10:01:50;;;;;;;;;;;11.50;99.90;;;11.94;71.16;98164.47;5113143;28;20043;-61
2022/04/07 10:04:22;;;;;;;25.65;7.63;;;11.70;99.90;;;11.85;69.95;98178.19;5112055;28;20323;-63
2022/04/07 10:06:54;;;;;;;24.33;7.32;;;11.70;99.90;;;11.87;68.31;98168.38;5112431;28;20046;-64
2022/04/07 10:09:24;;;;;;;24.13;7.95;;;11.70;99.90;;;11.67;68.19;98180.00;5112735;28;20043;-62
2022/04/07 10:11:53;;;;;;;22.65;7.47;;;11.60;99.90;;;11.63;67.84;98165.19;5108703;28;20140;-63
2022/04/07 10:14:24;;;;;;;32.75;7.07;;;11.50;99.90;;;11.49;68.23;98185.38;5092168;28;20105;-63
2022/04/07 10:16:53;;;;;;;23.17;6.60;;;11.30;99.90;;;11.15;69.04;98124.53;5092385;28;20130;-64
2022/04/07 10:19:30;;;;;;;30.15;6.57;;;11.30;99.90;;;11.42;68.73;98168.09;5092206;28;20040;-63
2022/04/07 10:22:18;;;;;;;27.35;6.60;;;11.40;99.90;;;11.48;68.55;98171.28;5091874;28;20113;-63
2022/04/07 10:24:50;;;;;;;35.72;7.50;;;11.30;99.90;;;11.54;69.13;98194.78;5091859;28;20052;-62